KETN/ETN METAR and TAF weather

Enter ICAO airport designator
Station Type Date Time Source
KETN METAR 2024/06/14 01:55 UTC NOAA

KETN 140155Z AUTO 14004KT 10SM 28/21 A2993 RMK AO2 T02820208


Station Type Date Time Source
KETN Decoded METAR 2024/06/14 01:55 UTC NOAA

Station name not available
Jun 13, 2024 - 09:55 PM EDT / 2024.06.14 0155 UTC
Wind: from the SE (140 degrees) at 5 MPH (4 KT):0
Visibility: 10 mile(s):0
Temperature: 82.8 F (28.2 C)
Dew Point: 69.4 F (20.8 C)
Relative Humidity: 64%
Pressure (altimeter): 29.93 in. Hg (1013 hPa)
ob: KETN 140155Z AUTO 14004KT 10SM 28/21 A2993 RMK AO2 T02820208
cycle: 2

Station Type Date Time Source
KETN TAF UTC NOAA

Error!

Example: see airport list